Weather at Medlock Field

Public forecast

Using degrees Fahrenheit for public forecast. Weather courtesy of forecast.io.

Closest aviation weather report (METAR) to Medlock Field

Closest report is University Airport, 5.4 nm (9.9 km) SSW. Retrieved 2020/11/25 10:35 UTC (0 seconds ago):

KEDU 251035Z AUTO 17004KT 10SM CLR 07/07 A3010 RMK AO1

Closest aviation forecast (TAF) to Medlock Field

Closest forecast is Sacramento International Airport, 8.7 nm (16.2 km) ENE. Retrieved 2020/11/25 06:22 UTC (4 hours ago):

TAF KSMF 250520Z 2506/2606 15008KT P6SM SKC FM250900 16009KT P6SM BKN250 FM251600 16005KT P6SM SCT050 SCT250 FM252000 33009KT P6SM FEW250